GIA284 WIII-WIGG
Flight info
| Callsign | GIA284 |
|---|---|
| Flight time | 1h 15m |
| Altitude | 30000 |
| Route | GUDBA T6 UDUTO |
| Aircraft | B738/M-SDE2E3FGHIRWXY/LB1 |
Departure
| Time | 2026-05-07 08:10 |
|---|---|
| Airport | Soekarno-Hatta International Airport (WIII) |
Arrival
| Time | 2026-05-07 09:26 |
|---|---|
| Airport | Fatmawati Soekarno Airport (WIGG) |
| Time | Latitude | Longitude | Altitude | Speed | Heading |
|---|---|---|---|---|---|
| 2026-05-07 07:52 | -6.12246 | 106.64911 | 37 ft | 0 kts | 144° |
| 2026-05-07 08:01 | -6.12241 | 106.64908 | 37 ft | 2 kts | 143° |
| 2026-05-07 08:01 | -6.12228 | 106.64898 | 35 ft | 2 kts | 143° |
| 2026-05-07 08:02 | -6.12215 | 106.64888 | 35 ft | 2 kts | 143° |
| 2026-05-07 08:02 | -6.12201 | 106.64879 | 34 ft | 2 kts | 158° |
| 2026-05-07 08:02 | -6.12185 | 106.64878 | 34 ft | 2 kts | 191° |
| 2026-05-07 08:02 | -6.12170 | 106.64885 | 37 ft | 2 kts | 224° |
| 2026-05-07 08:03 | -6.12162 | 106.64899 | 37 ft | 2 kts | 249° |
| 2026-05-07 08:03 | -6.12158 | 106.64909 | 35 ft | 1 kts | 245° |
| 2026-05-07 08:05 | -6.12166 | 106.64890 | 37 ft | 8 kts | 245° |
| 2026-05-07 08:05 | -6.12198 | 106.64808 | 37 ft | 17 kts | 250° |
| 2026-05-07 08:05 | -6.12142 | 106.64726 | 37 ft | 17 kts | 338° |
| 2026-05-07 08:05 | -6.12035 | 106.64681 | 36 ft | 16 kts | 334° |
| 2026-05-07 08:06 | -6.12024 | 106.64566 | 38 ft | 23 kts | 246° |
| 2026-05-07 08:06 | -6.12087 | 106.64404 | 35 ft | 25 kts | 248° |
| 2026-05-07 08:06 | -6.12150 | 106.64248 | 38 ft | 23 kts | 248° |
| 2026-05-07 08:06 | -6.12209 | 106.64100 | 37 ft | 22 kts | 248° |
| 2026-05-07 08:07 | -6.12265 | 106.63957 | 38 ft | 20 kts | 253° |
| 2026-05-07 08:07 | -6.12220 | 106.63897 | 38 ft | 0 kts | 336° |
| 2026-05-07 08:08 | -6.12198 | 106.63890 | 40 ft | 7 kts | 351° |
| 2026-05-07 08:09 | -6.12128 | 106.63912 | 40 ft | 13 kts | 32° |
| 2026-05-07 08:09 | -6.12066 | 106.63973 | 38 ft | 7 kts | 64° |
| 2026-05-07 08:09 | -6.12064 | 106.63977 | 38 ft | 0 kts | 66° |
| 2026-05-07 08:09 | -6.12043 | 106.64029 | 65 ft | 33 kts | 68° |
| 2026-05-07 08:10 | -6.11860 | 106.64486 | 40 ft | 106 kts | 68° |
| 2026-05-07 08:10 | -6.11509 | 106.65369 | 60 ft | 163 kts | 68° |
| 2026-05-07 08:10 | -6.11022 | 106.66430 | 790 ft | 161 kts | 60° |
| 2026-05-07 08:10 | -6.10515 | 106.67461 | 1549 ft | 173 kts | 60° |
| 2026-05-07 08:11 | -6.09520 | 106.68308 | 1880 ft | 207 kts | 32° |
| 2026-05-07 08:11 | -6.08206 | 106.69109 | 2118 ft | 233 kts | 34° |
| 2026-05-07 08:11 | -6.06797 | 106.69997 | 2585 ft | 248 kts | 34° |
| 2026-05-07 08:11 | -6.05282 | 106.70971 | 2990 ft | 266 kts | 34° |
| 2026-05-07 08:12 | -6.03676 | 106.71910 | 3826 ft | 271 kts | 21° |
| 2026-05-07 08:12 | -6.01788 | 106.72038 | 4723 ft | 278 kts | 349° |
| 2026-05-07 08:12 | -6.00020 | 106.71238 | 5542 ft | 284 kts | 322° |
| 2026-05-07 08:12 | -5.98703 | 106.69747 | 6345 ft | 289 kts | 300° |
| 2026-05-07 08:13 | -5.97873 | 106.67910 | 7110 ft | 293 kts | 291° |
| 2026-05-07 08:13 | -5.97159 | 106.65979 | 7854 ft | 297 kts | 289° |
| 2026-05-07 08:13 | -5.96464 | 106.64014 | 8668 ft | 300 kts | 289° |
| 2026-05-07 08:13 | -5.95763 | 106.62029 | 9442 ft | 304 kts | 289° |
| 2026-05-07 08:14 | -5.95047 | 106.60020 | 10174 ft | 308 kts | 290° |
| 2026-05-07 08:14 | -5.94562 | 106.58672 | 10487 ft | 317 kts | 290° |
| 2026-05-07 08:14 | -5.93529 | 106.55825 | 11221 ft | 329 kts | 290° |
| 2026-05-07 08:14 | -5.92738 | 106.53663 | 11937 ft | 331 kts | 290° |
| 2026-05-07 08:15 | -5.91937 | 106.51483 | 12659 ft | 334 kts | 290° |
| 2026-05-07 08:15 | -5.91125 | 106.49281 | 13334 ft | 338 kts | 290° |
| 2026-05-07 08:15 | -5.90581 | 106.47807 | 13766 ft | 340 kts | 291° |
| 2026-05-07 08:15 | -5.89756 | 106.45574 | 14410 ft | 342 kts | 291° |
| 2026-05-07 08:16 | -5.88923 | 106.43321 | 15030 ft | 345 kts | 291° |
| 2026-05-07 08:16 | -5.88083 | 106.41054 | 15646 ft | 348 kts | 291° |
| 2026-05-07 08:16 | -5.87235 | 106.38763 | 16235 ft | 352 kts | 291° |
| 2026-05-07 08:16 | -5.86379 | 106.36449 | 16843 ft | 355 kts | 291° |
| 2026-05-07 08:17 | -5.85515 | 106.34118 | 17448 ft | 358 kts | 291° |
| 2026-05-07 08:17 | -5.84644 | 106.31766 | 18037 ft | 361 kts | 291° |
| 2026-05-07 08:17 | -5.83765 | 106.29394 | 18539 ft | 364 kts | 291° |
| 2026-05-07 08:17 | -5.82878 | 106.26999 | 19058 ft | 367 kts | 291° |
| 2026-05-07 08:18 | -5.81984 | 106.24586 | 19569 ft | 369 kts | 291° |
| 2026-05-07 08:18 | -5.81085 | 106.22161 | 20070 ft | 372 kts | 291° |
| 2026-05-07 08:18 | -5.80177 | 106.19712 | 20574 ft | 375 kts | 291° |
| 2026-05-07 08:18 | -5.79264 | 106.17248 | 21067 ft | 378 kts | 291° |
| 2026-05-07 08:19 | -5.78345 | 106.14769 | 21546 ft | 381 kts | 291° |
| 2026-05-07 08:19 | -5.77416 | 106.12263 | 22029 ft | 384 kts | 291° |
| 2026-05-07 08:19 | -5.76481 | 106.09743 | 22492 ft | 387 kts | 291° |
| 2026-05-07 08:19 | -5.75540 | 106.07204 | 22959 ft | 389 kts | 291° |
| 2026-05-07 08:20 | -5.74604 | 106.04682 | 23402 ft | 392 kts | 291° |
| 2026-05-07 08:20 | -5.73648 | 106.02104 | 23776 ft | 395 kts | 291° |
| 2026-05-07 08:20 | -5.72687 | 105.99514 | 24159 ft | 397 kts | 291° |
| 2026-05-07 08:20 | -5.71720 | 105.96910 | 24539 ft | 399 kts | 291° |
| 2026-05-07 08:21 | -5.70749 | 105.94292 | 24763 ft | 400 kts | 291° |
| 2026-05-07 08:21 | -5.69781 | 105.91684 | 24785 ft | 399 kts | 291° |
| 2026-05-07 08:21 | -5.68808 | 105.89062 | 24806 ft | 403 kts | 291° |
| 2026-05-07 08:21 | -5.67828 | 105.86423 | 24806 ft | 403 kts | 291° |
| 2026-05-07 08:22 | -5.66843 | 105.83771 | 24976 ft | 408 kts | 291° |
| 2026-05-07 08:22 | -5.65853 | 105.81107 | 25416 ft | 407 kts | 291° |
| 2026-05-07 08:22 | -5.64864 | 105.78444 | 25869 ft | 407 kts | 291° |
| 2026-05-07 08:22 | -5.63873 | 105.75776 | 26247 ft | 409 kts | 291° |
| 2026-05-07 08:23 | -5.62868 | 105.73083 | 26287 ft | 416 kts | 292° |
| 2026-05-07 08:23 | -5.61831 | 105.70341 | 26596 ft | 418 kts | 291° |
| 2026-05-07 08:23 | -5.60826 | 105.67623 | 27193 ft | 414 kts | 291° |
| 2026-05-07 08:23 | -5.59825 | 105.64902 | 27565 ft | 417 kts | 291° |
| 2026-05-07 08:24 | -5.58812 | 105.62162 | 27855 ft | 421 kts | 291° |
| 2026-05-07 08:24 | -5.57788 | 105.59403 | 28166 ft | 423 kts | 291° |
| 2026-05-07 08:24 | -5.56735 | 105.56636 | 28514 ft | 425 kts | 295° |
| 2026-05-07 08:24 | -5.55375 | 105.54011 | 28842 ft | 425 kts | 305° |
| 2026-05-07 08:25 | -5.53664 | 105.51584 | 29175 ft | 426 kts | 308° |
| 2026-05-07 08:25 | -5.51890 | 105.49193 | 29493 ft | 428 kts | 308° |
| 2026-05-07 08:25 | -5.50094 | 105.46800 | 29796 ft | 430 kts | 308° |
| 2026-05-07 08:26 | -5.44682 | 105.39523 | 29799 ft | 430 kts | 308° |
| 2026-05-07 08:26 | -5.41144 | 105.34701 | 29803 ft | 429 kts | 308° |
| 2026-05-07 08:27 | -5.37603 | 105.29864 | 29805 ft | 431 kts | 308° |
| 2026-05-07 08:27 | -5.34056 | 105.25017 | 29805 ft | 431 kts | 308° |
| 2026-05-07 08:28 | -5.30502 | 105.20163 | 29804 ft | 431 kts | 308° |
| 2026-05-07 08:28 | -5.26973 | 105.15345 | 29799 ft | 431 kts | 308° |
| 2026-05-07 08:29 | -5.23433 | 105.10514 | 29802 ft | 429 kts | 308° |
| 2026-05-07 08:29 | -5.19898 | 105.05690 | 29801 ft | 429 kts | 308° |
| 2026-05-07 08:30 | -5.16365 | 105.00871 | 29802 ft | 428 kts | 308° |
| 2026-05-07 08:30 | -5.12838 | 104.96060 | 29805 ft | 428 kts | 308° |
| 2026-05-07 08:31 | -5.09314 | 104.91255 | 29809 ft | 428 kts | 308° |
| 2026-05-07 08:31 | -5.05790 | 104.86451 | 29815 ft | 427 kts | 308° |
| 2026-05-07 08:32 | -5.02258 | 104.81636 | 29830 ft | 433 kts | 308° |
| 2026-05-07 08:32 | -4.98606 | 104.76663 | 29833 ft | 451 kts | 308° |
| 2026-05-07 08:33 | -4.94848 | 104.71543 | 29826 ft | 461 kts | 308° |
| 2026-05-07 08:33 | -4.91013 | 104.66316 | 29829 ft | 469 kts | 308° |
| 2026-05-07 08:34 | -4.87111 | 104.60999 | 29833 ft | 477 kts | 308° |
| 2026-05-07 08:34 | -4.83152 | 104.55608 | 29816 ft | 483 kts | 308° |
| 2026-05-07 08:35 | -4.79816 | 104.49739 | 29835 ft | 489 kts | 295° |
| 2026-05-07 08:35 | -4.77190 | 104.43429 | 29824 ft | 493 kts | 294° |
| 2026-05-07 08:36 | -4.74570 | 104.37059 | 29821 ft | 495 kts | 294° |
| 2026-05-07 08:36 | -4.71864 | 104.30693 | 29820 ft | 496 kts | 295° |
| 2026-05-07 08:37 | -4.69133 | 104.24379 | 29825 ft | 497 kts | 295° |
| 2026-05-07 08:37 | -4.66353 | 104.17980 | 29820 ft | 497 kts | 295° |
| 2026-05-07 08:38 | -4.63615 | 104.11669 | 29820 ft | 497 kts | 295° |
| 2026-05-07 08:38 | -4.60858 | 104.05308 | 29826 ft | 497 kts | 295° |
| 2026-05-07 08:39 | -4.58100 | 103.98946 | 29827 ft | 497 kts | 295° |
| 2026-05-07 08:39 | -4.55344 | 103.92589 | 29829 ft | 497 kts | 295° |
| 2026-05-07 08:40 | -4.52586 | 103.86229 | 29842 ft | 497 kts | 295° |
| 2026-05-07 08:40 | -4.49829 | 103.79873 | 29840 ft | 495 kts | 295° |
| 2026-05-07 08:41 | -4.48483 | 103.76768 | 29823 ft | 476 kts | 295° |
| 2026-05-07 08:41 | -4.47189 | 103.73780 | 29831 ft | 459 kts | 295° |
| 2026-05-07 08:41 | -4.45939 | 103.70896 | 29834 ft | 443 kts | 295° |
| 2026-05-07 08:41 | -4.44731 | 103.68110 | 29814 ft | 429 kts | 295° |
| 2026-05-07 08:42 | -4.43549 | 103.65416 | 29515 ft | 415 kts | 296° |
| 2026-05-07 08:42 | -4.42334 | 103.62859 | 29261 ft | 400 kts | 298° |
| 2026-05-07 08:42 | -4.41099 | 103.60378 | 28687 ft | 396 kts | 298° |
| 2026-05-07 08:42 | -4.39859 | 103.57924 | 28007 ft | 395 kts | 298° |
| 2026-05-07 08:43 | -4.38623 | 103.55476 | 27360 ft | 393 kts | 298° |
| 2026-05-07 08:43 | -4.37404 | 103.53045 | 26794 ft | 389 kts | 298° |
| 2026-05-07 08:43 | -4.36202 | 103.50634 | 26257 ft | 385 kts | 298° |
| 2026-05-07 08:43 | -4.35013 | 103.48238 | 25715 ft | 382 kts | 298° |
| 2026-05-07 08:44 | -4.33841 | 103.45869 | 25174 ft | 378 kts | 298° |
| 2026-05-07 08:44 | -4.32677 | 103.43514 | 24657 ft | 376 kts | 298° |
| 2026-05-07 08:44 | -4.31526 | 103.41179 | 24131 ft | 373 kts | 298° |
| 2026-05-07 08:44 | -4.30381 | 103.38860 | 23628 ft | 370 kts | 298° |
| 2026-05-07 08:45 | -4.29244 | 103.36557 | 23082 ft | 367 kts | 298° |
| 2026-05-07 08:45 | -4.28118 | 103.34273 | 22499 ft | 364 kts | 298° |
| 2026-05-07 08:45 | -4.27001 | 103.32011 | 21944 ft | 361 kts | 298° |
| 2026-05-07 08:45 | -4.25891 | 103.29761 | 21409 ft | 358 kts | 297° |
| 2026-05-07 08:46 | -4.24794 | 103.27538 | 20857 ft | 355 kts | 297° |
| 2026-05-07 08:46 | -4.23703 | 103.25328 | 20326 ft | 353 kts | 297° |
| 2026-05-07 08:46 | -4.22616 | 103.23128 | 19829 ft | 351 kts | 297° |
| 2026-05-07 08:46 | -4.21541 | 103.20949 | 19346 ft | 348 kts | 297° |
| 2026-05-07 08:47 | -4.20472 | 103.18783 | 18855 ft | 346 kts | 297° |
| 2026-05-07 08:47 | -4.19409 | 103.16630 | 18362 ft | 343 kts | 297° |
| 2026-05-07 08:47 | -4.18353 | 103.14492 | 17836 ft | 341 kts | 297° |
| 2026-05-07 08:47 | -4.17305 | 103.12371 | 17287 ft | 339 kts | 297° |
| 2026-05-07 08:48 | -4.16265 | 103.10264 | 16778 ft | 335 kts | 297° |
| 2026-05-07 08:48 | -4.15241 | 103.08190 | 16382 ft | 329 kts | 297° |
| 2026-05-07 08:48 | -4.14235 | 103.06154 | 16062 ft | 322 kts | 297° |
| 2026-05-07 08:48 | -4.13245 | 103.04150 | 15725 ft | 323 kts | 298° |
| 2026-05-07 08:49 | -4.12246 | 103.02130 | 15360 ft | 324 kts | 297° |
| 2026-05-07 08:49 | -4.11243 | 103.00100 | 15023 ft | 325 kts | 297° |
| 2026-05-07 08:49 | -4.10243 | 102.98077 | 14715 ft | 324 kts | 297° |
| 2026-05-07 08:49 | -4.09248 | 102.96062 | 14395 ft | 322 kts | 297° |
| 2026-05-07 08:50 | -4.08252 | 102.94047 | 14059 ft | 323 kts | 297° |
| 2026-05-07 08:50 | -4.07255 | 102.92029 | 13729 ft | 323 kts | 297° |
| 2026-05-07 08:50 | -4.06258 | 102.90012 | 13351 ft | 322 kts | 297° |
| 2026-05-07 08:50 | -4.05269 | 102.88010 | 13023 ft | 320 kts | 297° |
| 2026-05-07 08:51 | -4.04285 | 102.86021 | 12693 ft | 318 kts | 297° |
| 2026-05-07 08:51 | -4.03306 | 102.84042 | 12377 ft | 316 kts | 297° |
| 2026-05-07 08:51 | -4.02334 | 102.82075 | 12083 ft | 313 kts | 297° |
| 2026-05-07 08:51 | -4.01377 | 102.80139 | 11885 ft | 309 kts | 297° |
| 2026-05-07 08:52 | -4.00424 | 102.78212 | 11657 ft | 309 kts | 297° |
| 2026-05-07 08:52 | -3.99468 | 102.76279 | 11405 ft | 310 kts | 297° |
| 2026-05-07 08:52 | -3.98513 | 102.74346 | 11166 ft | 309 kts | 297° |
| 2026-05-07 08:52 | -3.97559 | 102.72418 | 10940 ft | 309 kts | 297° |
| 2026-05-07 08:53 | -3.96604 | 102.70490 | 10713 ft | 309 kts | 297° |
| 2026-05-07 08:53 | -3.95651 | 102.68562 | 10474 ft | 309 kts | 297° |
| 2026-05-07 08:53 | -3.94698 | 102.66634 | 10251 ft | 309 kts | 297° |
| 2026-05-07 08:53 | -3.93746 | 102.64711 | 10015 ft | 307 kts | 297° |
| 2026-05-07 08:54 | -3.92806 | 102.62812 | 9778 ft | 301 kts | 297° |
| 2026-05-07 08:54 | -3.91890 | 102.60959 | 9520 ft | 292 kts | 297° |
| 2026-05-07 08:54 | -3.90991 | 102.59143 | 9266 ft | 290 kts | 297° |
| 2026-05-07 08:54 | -3.90100 | 102.57341 | 9024 ft | 288 kts | 297° |
| 2026-05-07 08:55 | -3.89222 | 102.55567 | 8779 ft | 287 kts | 297° |
| 2026-05-07 08:55 | -3.88325 | 102.53755 | 8527 ft | 288 kts | 297° |
| 2026-05-07 08:55 | -3.87443 | 102.51974 | 8297 ft | 289 kts | 297° |
| 2026-05-07 08:55 | -3.86539 | 102.50147 | 8045 ft | 288 kts | 297° |
| 2026-05-07 08:56 | -3.85653 | 102.48357 | 7806 ft | 286 kts | 297° |
| 2026-05-07 08:56 | -3.84786 | 102.46606 | 7569 ft | 284 kts | 297° |
| 2026-05-07 08:56 | -3.83905 | 102.44825 | 7327 ft | 282 kts | 297° |
| 2026-05-07 08:56 | -3.83048 | 102.43095 | 7089 ft | 280 kts | 297° |
| 2026-05-07 08:57 | -3.82185 | 102.41351 | 6857 ft | 278 kts | 297° |
| 2026-05-07 08:57 | -3.81316 | 102.39597 | 6625 ft | 277 kts | 297° |
| 2026-05-07 08:57 | -3.80470 | 102.37888 | 6364 ft | 277 kts | 297° |
| 2026-05-07 08:57 | -3.79619 | 102.36170 | 6150 ft | 275 kts | 297° |
| 2026-05-07 08:58 | -3.78766 | 102.34448 | 6092 ft | 278 kts | 297° |
| 2026-05-07 08:58 | -3.77910 | 102.32719 | 6064 ft | 276 kts | 297° |
| 2026-05-07 08:58 | -3.77073 | 102.31030 | 6051 ft | 265 kts | 297° |
| 2026-05-07 08:58 | -3.76272 | 102.29412 | 6051 ft | 256 kts | 297° |
| 2026-05-07 08:59 | -3.75483 | 102.27818 | 6057 ft | 255 kts | 297° |
| 2026-05-07 08:59 | -3.74695 | 102.26229 | 6049 ft | 255 kts | 297° |
| 2026-05-07 08:59 | -3.74165 | 102.25157 | 6057 ft | 254 kts | 297° |
| 2026-05-07 08:59 | -3.73383 | 102.23578 | 6052 ft | 252 kts | 297° |
| 2026-05-07 09:00 | -3.72592 | 102.21982 | 5647 ft | 267 kts | 297° |
| 2026-05-07 09:00 | -3.71857 | 102.20237 | 5111 ft | 277 kts | 280° |
| 2026-05-07 09:00 | -3.72006 | 102.18312 | 4593 ft | 284 kts | 252° |
| 2026-05-07 09:00 | -3.72321 | 102.16381 | 4369 ft | 280 kts | 274° |
| 2026-05-07 09:01 | -3.71753 | 102.14585 | 4352 ft | 265 kts | 304° |
| 2026-05-07 09:01 | -3.70480 | 102.13381 | 4463 ft | 247 kts | 335° |
| 2026-05-07 09:01 | -3.68840 | 102.12996 | 4542 ft | 243 kts | 5° |
| 2026-05-07 09:01 | -3.67272 | 102.13491 | 4555 ft | 236 kts | 37° |
| 2026-05-07 09:02 | -3.66226 | 102.14708 | 4556 ft | 230 kts | 69° |
| 2026-05-07 09:02 | -3.65937 | 102.16223 | 4565 ft | 217 kts | 88° |
| 2026-05-07 09:02 | -3.65900 | 102.17688 | 4544 ft | 205 kts | 90° |
| 2026-05-07 09:02 | -3.65884 | 102.19106 | 4548 ft | 202 kts | 90° |
| 2026-05-07 09:03 | -3.65873 | 102.20511 | 4552 ft | 203 kts | 90° |
| 2026-05-07 09:03 | -3.65862 | 102.21933 | 4565 ft | 205 kts | 90° |
| 2026-05-07 09:03 | -3.65850 | 102.23373 | 4575 ft | 209 kts | 90° |
| 2026-05-07 09:03 | -3.65841 | 102.24839 | 4575 ft | 211 kts | 90° |
| 2026-05-07 09:04 | -3.65834 | 102.26312 | 4577 ft | 212 kts | 90° |
| 2026-05-07 09:04 | -3.65828 | 102.27800 | 4569 ft | 214 kts | 90° |
| 2026-05-07 09:04 | -3.66034 | 102.29233 | 4557 ft | 211 kts | 115° |
| 2026-05-07 09:04 | -3.67004 | 102.30316 | 4549 ft | 209 kts | 151° |
| 2026-05-07 09:05 | -3.68408 | 102.30608 | 4566 ft | 211 kts | 187° |
| 2026-05-07 09:05 | -3.69754 | 102.30014 | 4579 ft | 218 kts | 222° |
| 2026-05-07 09:05 | -3.70556 | 102.28724 | 4568 ft | 224 kts | 256° |
| 2026-05-07 09:05 | -3.70695 | 102.27190 | 4575 ft | 225 kts | 269° |
| 2026-05-07 09:06 | -3.70701 | 102.25630 | 4557 ft | 223 kts | 270° |
| 2026-05-07 09:06 | -3.70694 | 102.24066 | 4554 ft | 220 kts | 270° |
| 2026-05-07 09:06 | -3.70686 | 102.22566 | 4557 ft | 219 kts | 270° |
| 2026-05-07 09:06 | -3.70676 | 102.21043 | 4563 ft | 219 kts | 270° |
| 2026-05-07 09:07 | -3.70666 | 102.19507 | 4574 ft | 222 kts | 270° |
| 2026-05-07 09:07 | -3.70654 | 102.17960 | 4560 ft | 220 kts | 270° |
| 2026-05-07 09:07 | -3.70641 | 102.16427 | 4538 ft | 222 kts | 270° |
| 2026-05-07 09:07 | -3.70628 | 102.14886 | 4492 ft | 220 kts | 270° |
| 2026-05-07 09:08 | -3.70616 | 102.13375 | 4487 ft | 217 kts | 270° |
| 2026-05-07 09:08 | -3.70604 | 102.11855 | 4502 ft | 221 kts | 270° |
| 2026-05-07 09:08 | -3.70593 | 102.10314 | 4494 ft | 221 kts | 270° |
| 2026-05-07 09:08 | -3.70583 | 102.08791 | 4481 ft | 218 kts | 270° |
| 2026-05-07 09:09 | -3.70571 | 102.07257 | 4497 ft | 222 kts | 270° |
| 2026-05-07 09:09 | -3.70375 | 102.05740 | 4476 ft | 219 kts | 294° |
| 2026-05-07 09:09 | -3.69425 | 102.04581 | 4501 ft | 221 kts | 329° |
| 2026-05-07 09:09 | -3.67964 | 102.04119 | 4513 ft | 224 kts | 356° |
| 2026-05-07 09:10 | -3.66405 | 102.04033 | 4493 ft | 224 kts | 0° |
| 2026-05-07 09:10 | -3.64859 | 102.03980 | 4474 ft | 221 kts | 0° |
| 2026-05-07 09:10 | -3.63332 | 102.03935 | 4477 ft | 218 kts | 0° |
| 2026-05-07 09:10 | -3.61823 | 102.03894 | 4485 ft | 216 kts | 0° |
| 2026-05-07 09:11 | -3.60318 | 102.03857 | 4486 ft | 218 kts | 0° |
| 2026-05-07 09:11 | -3.58786 | 102.03821 | 4506 ft | 222 kts | 0° |
| 2026-05-07 09:11 | -3.57235 | 102.03787 | 4495 ft | 222 kts | 0° |
| 2026-05-07 09:11 | -3.55699 | 102.03754 | 4491 ft | 220 kts | 0° |
| 2026-05-07 09:12 | -3.54178 | 102.03722 | 4481 ft | 217 kts | 0° |
| 2026-05-07 09:12 | -3.52674 | 102.03692 | 4491 ft | 216 kts | 0° |
| 2026-05-07 09:12 | -3.51166 | 102.03664 | 4503 ft | 218 kts | 0° |
| 2026-05-07 09:12 | -3.49636 | 102.03638 | 4513 ft | 222 kts | 0° |
| 2026-05-07 09:13 | -3.48105 | 102.03614 | 4507 ft | 222 kts | 0° |
| 2026-05-07 09:13 | -3.46570 | 102.03590 | 4495 ft | 220 kts | 0° |
| 2026-05-07 09:13 | -3.45047 | 102.03566 | 4488 ft | 218 kts | 0° |
| 2026-05-07 09:13 | -3.43536 | 102.03543 | 4492 ft | 217 kts | 360° |
| 2026-05-07 09:14 | -3.42030 | 102.03524 | 4511 ft | 219 kts | 0° |
| 2026-05-07 09:14 | -3.40491 | 102.03507 | 4488 ft | 222 kts | 0° |
| 2026-05-07 09:14 | -3.38964 | 102.03667 | 4330 ft | 218 kts | 23° |
| 2026-05-07 09:14 | -3.37819 | 102.04561 | 4297 ft | 208 kts | 58° |
| 2026-05-07 09:15 | -3.37414 | 102.05905 | 4022 ft | 203 kts | 94° |
| 2026-05-07 09:15 | -3.37849 | 102.07228 | 3669 ft | 203 kts | 126° |
| 2026-05-07 09:15 | -3.38893 | 102.08121 | 3534 ft | 193 kts | 154° |
| 2026-05-07 09:15 | -3.40138 | 102.08643 | 3473 ft | 197 kts | 160° |
| 2026-05-07 09:16 | -3.41447 | 102.09115 | 3463 ft | 204 kts | 160° |
| 2026-05-07 09:16 | -3.42791 | 102.09592 | 3426 ft | 205 kts | 160° |
| 2026-05-07 09:16 | -3.44129 | 102.10069 | 3382 ft | 203 kts | 160° |
| 2026-05-07 09:16 | -3.45450 | 102.10543 | 3351 ft | 200 kts | 160° |
| 2026-05-07 09:17 | -3.46756 | 102.11013 | 3316 ft | 199 kts | 160° |
| 2026-05-07 09:17 | -3.48049 | 102.11479 | 3291 ft | 197 kts | 160° |
| 2026-05-07 09:17 | -3.49337 | 102.11946 | 3267 ft | 197 kts | 160° |
| 2026-05-07 09:17 | -3.50631 | 102.12415 | 3245 ft | 200 kts | 160° |
| 2026-05-07 09:18 | -3.51953 | 102.12894 | 3232 ft | 204 kts | 160° |
| 2026-05-07 09:18 | -3.53289 | 102.13379 | 3202 ft | 206 kts | 160° |
| 2026-05-07 09:18 | -3.54686 | 102.13888 | 3209 ft | 219 kts | 160° |
| 2026-05-07 09:18 | -3.56129 | 102.14413 | 3198 ft | 223 kts | 160° |
| 2026-05-07 09:19 | -3.57603 | 102.14951 | 3107 ft | 226 kts | 160° |
| 2026-05-07 09:19 | -3.59073 | 102.15486 | 3080 ft | 224 kts | 160° |
| 2026-05-07 09:19 | -3.60507 | 102.16009 | 3020 ft | 213 kts | 160° |
| 2026-05-07 09:19 | -3.61851 | 102.16499 | 2995 ft | 202 kts | 160° |
| 2026-05-07 09:20 | -3.63160 | 102.16977 | 2976 ft | 199 kts | 160° |
| 2026-05-07 09:20 | -3.64490 | 102.17462 | 2997 ft | 210 kts | 160° |
| 2026-05-07 09:20 | -3.65888 | 102.17972 | 2963 ft | 216 kts | 160° |
| 2026-05-07 09:20 | -3.67306 | 102.18489 | 2938 ft | 217 kts | 160° |
| 2026-05-07 09:21 | -3.68720 | 102.19005 | 2902 ft | 216 kts | 160° |
| 2026-05-07 09:21 | -3.70130 | 102.19519 | 2873 ft | 216 kts | 160° |
| 2026-05-07 09:21 | -3.71522 | 102.20026 | 2845 ft | 207 kts | 160° |
| 2026-05-07 09:21 | -3.72810 | 102.20496 | 2809 ft | 193 kts | 160° |
| 2026-05-07 09:22 | -3.74029 | 102.21018 | 2750 ft | 191 kts | 145° |
| 2026-05-07 09:22 | -3.75036 | 102.21893 | 2645 ft | 191 kts | 138° |
| 2026-05-07 09:22 | -3.75994 | 102.22816 | 2497 ft | 189 kts | 135° |
| 2026-05-07 09:22 | -3.76882 | 102.23743 | 2354 ft | 181 kts | 134° |
| 2026-05-07 09:23 | -3.77727 | 102.24645 | 2259 ft | 175 kts | 134° |
| 2026-05-07 09:23 | -3.78568 | 102.25545 | 2062 ft | 179 kts | 135° |
| 2026-05-07 09:23 | -3.79414 | 102.26454 | 1856 ft | 173 kts | 135° |
| 2026-05-07 09:23 | -3.80209 | 102.27307 | 1619 ft | 161 kts | 135° |
| 2026-05-07 09:24 | -3.80954 | 102.28105 | 1403 ft | 154 kts | 135° |
| 2026-05-07 09:24 | -3.81679 | 102.28876 | 1223 ft | 152 kts | 135° |
| 2026-05-07 09:24 | -3.82404 | 102.29652 | 1036 ft | 153 kts | 134° |
| 2026-05-07 09:24 | -3.83134 | 102.30433 | 836 ft | 154 kts | 134° |
| 2026-05-07 09:25 | -3.83866 | 102.31217 | 640 ft | 154 kts | 134° |
| 2026-05-07 09:25 | -3.84592 | 102.31994 | 434 ft | 152 kts | 134° |
| 2026-05-07 09:25 | -3.85312 | 102.32766 | 211 ft | 152 kts | 134° |
| 2026-05-07 09:25 | -3.86039 | 102.33532 | 69 ft | 147 kts | 134° |
| 2026-05-07 09:26 | -3.86602 | 102.34138 | 63 ft | 89 kts | 133° |
| 2026-05-07 09:26 | -3.86897 | 102.34451 | 72 ft | 48 kts | 133° |
| 2026-05-07 09:26 | -3.87025 | 102.34622 | 59 ft | 20 kts | 112° |
| 2026-05-07 09:26 | -3.87077 | 102.34640 | 54 ft | 6 kts | 263° |
| 2026-05-07 09:27 | -3.87050 | 102.34613 | 63 ft | 6 kts | 319° |
| 2026-05-07 09:27 | -3.87017 | 102.34578 | 57 ft | 10 kts | 313° |
| 2026-05-07 09:27 | -3.86842 | 102.34395 | 73 ft | 27 kts | 313° |
| 2026-05-07 09:28 | -3.86696 | 102.34239 | 64 ft | 32 kts | 313° |
| 2026-05-07 09:28 | -3.86546 | 102.34080 | 60 ft | 31 kts | 313° |
| 2026-05-07 09:28 | -3.86407 | 102.33930 | 57 ft | 29 kts | 313° |
| 2026-05-07 09:28 | -3.86271 | 102.33786 | 66 ft | 27 kts | 313° |
| 2026-05-07 09:29 | -3.86148 | 102.33656 | 68 ft | 24 kts | 313° |
| 2026-05-07 09:29 | -3.86069 | 102.33641 | 62 ft | 12 kts | 40° |
| 2026-05-07 09:29 | -3.86013 | 102.33695 | 62 ft | 11 kts | 57° |
| 2026-05-07 09:29 | -3.86026 | 102.33740 | 50 ft | 3 kts | 114° |
| 2026-05-07 09:30 | -3.86023 | 102.33761 | 57 ft | 3 kts | 67° |
| 2026-05-07 09:30 | -3.86014 | 102.33771 | 57 ft | 0 kts | 44° |
| 2026-05-07 09:30 | -3.86026 | 102.33760 | 57 ft | 2 kts | 43° |
| 2026-05-07 09:30 | -3.86021 | 102.33764 | 58 ft | 0 kts | 43° |